Time;durP1;ratioP1;P1;durP2;ratioP2;P2;SDS_P1;SDS_P2;PMS_P1;PMS_P2;Temp;Humidity;BMP_temperature;BMP_pressure;BME280_temperature;BME280_humidity;BME280_pressure;Samples;Min_cycle;Max_cycle;Signal;HPM_P1;HPM_P2
2021/06/23 10:37:28;;;;;;;23.58;15.68;;;23.30;50.80;;;;;;5002853;27;75140;-69
2021/06/23 10:40:46;;;;;;;6.05;3.78;;;23.80;43.30;;;;;;4973113;28;80653;-69
2021/06/23 10:59:36;;;;;;;3.53;1.65;;;23.60;44.10;;;;;;20567303;27;76248;-70
2021/06/23 11:06:43;;;;;;;1.65;0.80;;;25.40;40.80;;;;;;2067220;28;75615;-69
2021/06/23 11:07:53;;;;;;;2.35;0.93;;;26.80;37.80;;;;;;2041558;28;83348;-68
2021/06/23 11:09:27;;;;;;;2.05;0.85;;;26.70;38.10;;;;;;2042246;28;80714;-68
2021/06/23 11:10:33;;;;;;;1.45;0.90;;;26.90;37.80;;;;;;2043391;28;80519;-71
2021/06/23 11:11:39;;;;;;;3.63;1.48;;;26.80;37.40;;;;;;2042366;28;80672;-68
2021/06/23 11:12:44;;;;;;;3.33;1.17;;;26.70;37.70;;;;;;2042416;28;80107;-70
2021/06/23 11:13:45;;;;;;;3.22;1.38;;;26.80;37.90;;;;;;2035499;28;80584;-70
2021/06/23 11:15:16;;;;;;;5.10;0.82;;;26.80;38.30;;;;;;2034171;28;80697;-68
2021/06/23 11:25:28;;;;;;;3.03;0.55;;;26.70;36.80;;;;;;20562056;27;76253;-70
2021/06/23 11:35:30;;;;;;;1.08;0.50;;;30.70;31.70;;;;;;20544109;28;80562;-70
2021/06/23 11:45:31;;;;;;;2.30;0.60;;;33.00;29.40;;;;;;20514412;28;80126;-69
2021/06/23 11:55:33;;;;;;;0.70;0.40;;;33.40;28.80;;;;;;20527725;28;80462;-69
2021/06/23 12:05:35;;;;;;;1.52;0.40;;;30.60;31.40;;;;;;20525605;28;81258;-70
2021/06/23 12:15:39;;;;;;;2.28;0.80;;;28.40;35.10;;;;;;20505528;28;80701;-70
2021/06/23 12:25:47;;;;;;;2.42;0.88;;;28.90;34.10;;;;;;20572245;28;80089;-70
2021/06/23 12:35:48;;;;;;;2.90;0.70;;;31.50;30.40;;;;;;20539285;28;81091;-67
2021/06/23 12:45:51;;;;;;;1.67;0.57;;;33.20;28.20;;;;;;20525371;28;81125;-70
2021/06/23 12:55:52;;;;;;;1.00;0.40;;;33.50;28.20;;;;;;20531246;28;84185;-71
2021/06/23 13:05:58;;;;;;;3.78;0.80;;;29.60;31.80;;;;;;20533553;28;82701;-71
2021/06/23 13:16:02;;;;;;;1.10;0.57;;;36.20;24.40;;;;;;20545412;28;80675;-72
2021/06/23 13:26:04;;;;;;;2.58;0.50;;;40.40;20.30;;;;;;20529197;28;80618;-73
2021/06/23 13:36:06;;;;;;;2.42;0.70;;;32.50;27.30;;;;;;20488978;28;80800;-69
2021/06/23 13:46:08;;;;;;;1.75;0.35;;;36.00;23.30;;;;;;20528861;28;81353;-70
2021/06/23 13:56:10;;;;;;;1.95;1.10;;;32.50;26.30;;;;;;20548755;28;80685;-71
2021/06/23 14:06:11;;;;;;;1.77;0.47;;;29.50;30.70;;;;;;20547781;28;80410;-72
2021/06/23 14:16:13;;;;;;;2.30;0.57;;;28.90;31.70;;;;;;20545485;28;80459;-71
2021/06/23 14:26:15;;;;;;;1.40;0.80;;;27.90;31.90;;;;;;20542117;28;80797;-70
2021/06/23 14:36:17;;;;;;;2.42;0.50;;;27.30;32.70;;;;;;20548996;28;81115;-70
2021/06/23 14:46:18;;;;;;;4.03;0.68;;;26.80;33.80;;;;;;20508728;28;80733;-66
2021/06/23 14:56:20;;;;;;;4.82;2.60;;;26.40;34.90;;;;;;20517385;28;81378;-65
2021/06/23 15:06:22;;;;;;;2.60;1.02;;;26.10;35.50;;;;;;20516587;28;80820;-67
2021/06/23 15:16:25;;;;;;;1.30;0.50;;;26.70;34.40;;;;;;20527293;28;82494;-66
2021/06/23 15:26:26;;;;;;;2.53;0.40;;;27.00;34.20;;;;;;20520179;28;80802;-65
2021/06/23 15:36:28;;;;;;;2.13;0.82;;;26.80;34.00;;;;;;20530593;28;82557;-72
2021/06/23 15:46:29;;;;;;;3.75;1.08;;;26.70;34.70;;;;;;20510517;28;80723;-69
2021/06/23 15:56:31;;;;;;;6.35;2.70;;;26.30;35.00;;;;;;20492345;28;80689;-69
2021/06/23 16:06:33;;;;;;;2.20;0.70;;;25.80;35.80;;;;;;20521463;28;81193;-68
2021/06/23 16:16:35;;;;;;;1.77;0.60;;;26.20;34.70;;;;;;20513085;28;81603;-68
2021/06/23 16:26:38;;;;;;;0.50;0.20;;;26.40;34.00;;;;;;20497688;28;80601;-68
2021/06/23 16:36:40;;;;;;;0.50;0.30;;;26.30;34.80;;;;;;20511678;28;81535;-68
2021/06/23 16:46:43;;;;;;;3.80;0.55;;;26.10;34.10;;;;;;20511424;28;84296;-67
2021/06/23 16:56:44;;;;;;;2.60;1.10;;;26.10;34.00;;;;;;20512164;28;82382;-68
2021/06/23 17:06:54;;;;;;;0.60;0.30;;;26.00;34.00;;;;;;20505525;28;80719;-68
2021/06/23 17:16:56;;;;;;;1.80;0.50;;;25.70;33.90;;;;;;20554446;28;80686;-67
2021/06/23 17:26:57;;;;;;;9.48;6.95;;;25.20;34.90;;;;;;20540445;28;81202;-67
2021/06/23 17:36:59;;;;;;;5.20;1.40;;;24.90;36.10;;;;;;20495541;28;80846;-71
2021/06/23 17:47:01;;;;;;;4.80;1.13;;;25.00;36.40;;;;;;20548219;28;80926;-72
2021/06/23 17:57:02;;;;;;;2.20;0.80;;;25.00;36.40;;;;;;20511718;28;81678;-73
2021/06/23 18:07:04;;;;;;;6.45;1.00;;;25.10;36.10;;;;;;20492303;28;80367;-71
2021/06/23 18:17:05;;;;;;;1.38;0.40;;;24.90;36.30;;;;;;20516649;28;80308;-73
2021/06/23 18:27:07;;;;;;;1.17;0.40;;;24.80;36.80;;;;;;20518486;28;81134;-72
2021/06/23 18:37:09;;;;;;;3.60;0.68;;;24.50;36.60;;;;;;20525194;28;80417;-73
2021/06/23 18:47:11;;;;;;;3.33;0.60;;;24.30;36.50;;;;;;20542632;28;80747;-73
2021/06/23 18:57:12;;;;;;;4.63;0.80;;;24.30;36.30;;;;;;20504170;28;80691;-72
2021/06/23 19:07:15;;;;;;;3.23;1.43;;;24.30;36.20;;;;;;20507135;28;82976;-72
2021/06/23 19:17:16;;;;;;;2.33;0.70;;;24.00;36.80;;;;;;20525275;28;80906;-72
2021/06/23 19:27:19;;;;;;;6.57;3.33;;;23.80;37.60;;;;;;20495391;28;81591;-73
2021/06/23 19:37:20;;;;;;;3.47;1.20;;;23.50;37.40;;;;;;20517584;28;81006;-71
2021/06/23 19:47:26;;;;;;;33.33;18.43;;;23.20;37.40;;;;;;20520643;28;82127;-70
2021/06/23 19:57:28;;;;;;;8.52;3.38;;;23.00;37.20;;;;;;20517745;28;83685;-71
2021/06/23 20:07:30;;;;;;;6.07;3.33;;;22.80;38.90;;;;;;20517155;28;83026;-72
2021/06/23 20:17:32;;;;;;;5.82;2.58;;;22.70;38.80;;;;;;20545392;28;80849;-71
2021/06/23 20:27:34;;;;;;;13.00;6.70;;;22.60;37.80;;;;;;20519864;28;82355;-71
2021/06/23 20:37:39;;;;;;;8.43;4.70;;;22.50;37.30;;;;;;20533938;28;80259;-71
2021/06/23 20:47:41;;;;;;;6.40;3.78;;;22.40;36.40;;;;;;20537671;28;80813;-71
2021/06/23 20:57:51;;;;;;;2.90;1.60;;;22.30;36.10;;;;;;20508175;28;80952;-71
2021/06/23 21:07:56;;;;;;;8.32;5.00;;;22.10;37.10;;;;;;20538679;28;80631;-70
2021/06/23 21:18:10;;;;;;;7.65;3.92;;;22.00;37.50;;;;;;20523052;28;80999;-70
2021/06/23 21:28:13;;;;;;;2.22;0.85;;;21.90;38.30;;;;;;20480955;28;80516;-70
2021/06/23 21:38:16;;;;;;;4.28;1.33;;;21.80;39.10;;;;;;20524306;28;83932;-70
2021/06/23 21:48:18;;;;;;;;;;;21.50;40.20;;;;;;20528201;28;82408;-70
2021/06/23 21:58:21;;;;;;;;;;;21.40;40.40;;;;;;20528017;28;81053;-68
2021/06/23 22:08:42;;;;;;;12.30;5.10;;;21.30;40.40;;;;;;20528550;28;78442;-69
2021/06/23 22:18:44;;;;;;;5.13;2.00;;;21.30;40.40;;;;;;20513116;28;81950;-69
2021/06/23 22:28:49;;;;;;;2.83;1.33;;;21.00;41.20;;;;;;20516323;28;80696;-69
2021/06/23 22:38:51;;;;;;;10.75;5.63;;;20.90;41.30;;;;;;20491749;28;81437;-70
2021/06/23 22:49:09;;;;;;;1.75;0.90;;;20.90;41.70;;;;;;20536121;28;82709;-69
2021/06/23 22:59:10;;;;;;;1.33;0.60;;;20.70;41.40;;;;;;20502719;28;83999;-71
2021/06/23 23:09:15;;;;;;;21.83;12.50;;;20.60;41.80;;;;;;20534485;28;82785;-69
2021/06/23 23:19:17;;;;;;;14.10;7.50;;;20.50;42.00;;;;;;20479635;28;83577;-69
2021/06/23 23:29:19;;;;;;;4.40;0.70;;;20.40;42.60;;;;;;20493870;28;83316;-70
2021/06/23 23:39:21;;;;;;;4.23;1.10;;;20.20;42.70;;;;;;20496845;28;80742;-69
2021/06/23 23:49:23;;;;;;;1.53;0.43;;;20.00;43.60;;;;;;20500197;28;80631;-69
2021/06/23 23:59:24;;;;;;;2.97;0.77;;;19.90;44.10;;;;;;20463548;28;82591;-69
